createdAt,value
2018-05-15T00:01:28.212Z,8.87
2018-05-15T00:03:56.346Z,9.33
2018-05-15T00:06:24.501Z,9.73
2018-05-15T00:08:52.624Z,9.97
2018-05-15T00:11:20.759Z,10.27
2018-05-15T00:13:50.540Z,9.50
2018-05-15T00:16:24.324Z,9.50
2018-05-15T00:18:52.447Z,8.90
2018-05-15T00:21:20.605Z,9.90
2018-05-15T00:23:48.732Z,8.60
2018-05-15T00:26:18.463Z,9.33
2018-05-15T00:28:46.588Z,9.43
2018-05-15T00:31:14.740Z,9.73
2018-05-15T00:33:44.701Z,9.07
2018-05-15T00:36:13.173Z,9.27
2018-05-15T00:38:42.078Z,9.97
2018-05-15T00:41:10.236Z,10.27
2018-05-15T00:43:39.128Z,10.43
2018-05-15T00:46:10.893Z,10.37
2018-05-15T00:48:39.794Z,10.03
2018-05-15T00:51:14.221Z,9.60
2018-05-15T00:53:42.354Z,10.83
2018-05-15T00:56:10.873Z,9.87
2018-05-15T00:58:39.002Z,9.73
2018-05-15T01:01:07.153Z,10.20
2018-05-15T01:03:35.288Z,10.80
2018-05-15T01:06:05.125Z,10.83
2018-05-15T01:08:33.255Z,11.33
2018-05-15T01:11:02.174Z,10.57
2018-05-15T01:13:31.759Z,10.60
2018-05-15T01:16:00.688Z,10.10
2018-05-15T01:18:29.148Z,9.70
2018-05-15T01:20:57.303Z,10.17
2018-05-15T01:23:26.200Z,9.60
2018-05-15T01:25:55.128Z,10.10
2018-05-15T01:28:25.175Z,10.10
2018-05-15T01:30:53.806Z,9.40
2018-05-15T01:33:21.934Z,9.87
2018-05-15T01:35:52.999Z,9.80
2018-05-15T01:38:21.135Z,10.40
2018-05-15T01:40:49.286Z,9.60
2018-05-15T01:43:17.399Z,9.40
2018-05-15T01:45:45.528Z,9.33
2018-05-15T01:48:14.763Z,9.20
2018-05-15T01:50:42.896Z,10.10
2018-05-15T01:53:11.046Z,9.33
2018-05-15T01:55:39.942Z,10.73
2018-05-15T01:58:08.409Z,9.60
2018-05-15T02:00:37.744Z,9.70
2018-05-15T02:03:05.832Z,9.73
2018-05-15T02:05:33.964Z,10.17
2018-05-15T02:08:02.939Z,9.10
2018-05-15T02:10:34.553Z,9.63
2018-05-15T02:13:03.240Z,10.47
2018-05-15T02:15:31.373Z,9.83
2018-05-15T02:18:00.293Z,10.07
2018-05-15T02:20:28.429Z,10.10
2018-05-15T02:22:56.588Z,9.70
2018-05-15T02:25:24.712Z,9.63
2018-05-15T02:27:53.723Z,9.60
2018-05-15T02:30:21.861Z,10.27
2018-05-15T02:32:50.017Z,10.27
2018-05-15T02:35:18.143Z,10.83
2018-05-15T02:37:46.301Z,10.90
2018-05-15T02:40:14.427Z,10.73
2018-05-15T02:42:43.654Z,10.67
2018-05-15T02:45:12.551Z,9.70
2018-05-15T02:47:41.451Z,10.60
2018-05-15T02:50:11.420Z,10.33
2018-05-15T02:52:39.577Z,10.40
2018-05-15T02:55:07.711Z,11.80
2018-05-15T02:57:35.870Z,10.33
2018-05-15T03:00:04.754Z,10.00
2018-05-15T03:02:32.910Z,10.93
2018-05-15T03:05:01.818Z,11.07
2018-05-15T03:07:29.955Z,10.27
2018-05-15T03:09:58.072Z,11.03
2018-05-15T03:12:26.988Z,11.30
2018-05-15T03:14:55.140Z,11.43
2018-05-15T03:17:24.780Z,11.67
2018-05-15T03:19:52.918Z,10.13
2018-05-15T03:22:21.836Z,11.43
2018-05-15T03:24:49.970Z,12.40
2018-05-15T03:27:18.133Z,11.03
2018-05-15T03:29:46.269Z,11.63
2018-05-15T03:32:14.410Z,10.20
2018-05-15T03:34:43.278Z,11.23
2018-05-15T03:37:11.437Z,11.53
2018-05-15T03:39:44.208Z,12.10
2018-05-15T03:42:12.381Z,12.80
2018-05-15T03:44:40.514Z,11.27
2018-05-15T03:47:11.122Z,11.23
2018-05-15T03:49:39.247Z,11.00
2018-05-15T03:52:07.401Z,11.27
2018-05-15T03:54:35.527Z,11.90
2018-05-15T03:57:09.894Z,12.17
2018-05-15T03:59:38.027Z,11.47
2018-05-15T04:02:18.100Z,11.93
2018-05-15T04:04:58.343Z,12.00
2018-05-15T04:07:39.108Z,11.23
2018-05-15T04:10:09.707Z,11.63
2018-05-15T04:12:38.727Z,12.30
2018-05-15T04:15:06.860Z,10.50
2018-05-15T04:17:35.320Z,10.90
2018-05-15T04:20:03.464Z,11.20
2018-05-15T04:22:31.668Z,10.60
2018-05-15T04:25:14.340Z,11.40
2018-05-15T04:27:43.187Z,12.37
2018-05-15T04:30:11.349Z,11.20
2018-05-15T04:32:39.494Z,12.00
2018-05-15T04:35:07.682Z,10.63
2018-05-15T04:37:37.139Z,13.13
2018-05-15T04:40:05.280Z,11.17
2018-05-15T04:42:35.324Z,11.90
2018-05-15T04:45:03.472Z,12.07
2018-05-15T04:47:32.404Z,12.33
2018-05-15T04:50:01.232Z,13.70
2018-05-15T04:52:29.388Z,11.80
2018-05-15T04:54:57.520Z,13.50
2018-05-15T04:57:25.671Z,13.70
2018-05-15T04:59:53.855Z,11.80
2018-05-15T05:02:22.752Z,12.30
2018-05-15T05:04:52.730Z,13.00
2018-05-15T05:07:22.312Z,13.20
2018-05-15T05:09:50.809Z,12.30
2018-05-15T05:12:20.686Z,12.30
2018-05-15T05:14:48.857Z,11.87
2018-05-15T05:17:16.978Z,11.90
2018-05-15T05:19:46.347Z,12.70
2018-05-15T05:22:14.485Z,12.90
2018-05-15T05:24:43.409Z,12.27
2018-05-15T05:27:11.549Z,11.47
2018-05-15T05:29:42.390Z,12.17
2018-05-15T05:32:11.292Z,11.47
2018-05-15T05:34:39.445Z,11.80
2018-05-15T05:37:08.380Z,12.50
2018-05-15T05:39:36.542Z,10.80
2018-05-15T05:42:04.695Z,11.10
2018-05-15T05:44:35.404Z,13.23
2018-05-15T05:47:05.430Z,11.37
2018-05-15T05:49:34.825Z,11.47
2018-05-15T05:52:04.876Z,11.53
2018-05-15T05:54:34.272Z,10.40
2018-05-15T05:57:03.667Z,11.00
2018-05-15T05:59:34.689Z,10.97
2018-05-15T06:02:04.079Z,11.80
2018-05-15T06:04:33.488Z,11.57
2018-05-15T06:07:02.884Z,11.17
2018-05-15T06:09:32.309Z,11.63
2018-05-15T06:12:03.495Z,11.80
2018-05-15T06:14:33.371Z,12.13
2018-05-15T06:17:03.255Z,11.27
2018-05-15T06:19:32.670Z,11.50
2018-05-15T06:22:02.060Z,11.13
2018-05-15T06:24:31.479Z,11.70
2018-05-15T06:27:00.869Z,10.73
2018-05-15T06:29:30.281Z,11.60
2018-05-15T06:31:59.673Z,10.60
2018-05-15T06:34:29.092Z,12.13
2018-05-15T06:36:58.468Z,11.23
2018-05-15T06:39:27.893Z,11.27
2018-05-15T06:41:57.349Z,11.60
2018-05-15T06:44:27.985Z,11.70
2018-05-15T06:46:57.384Z,11.63
2018-05-15T06:49:26.800Z,11.43
2018-05-15T06:51:56.233Z,12.37
2018-05-15T06:54:25.628Z,11.80
2018-05-15T06:56:55.025Z,12.83
2018-05-15T06:59:24.944Z,12.03
2018-05-15T07:01:54.415Z,11.33
2018-05-15T07:04:23.768Z,11.60
2018-05-15T07:06:53.160Z,11.10
2018-05-15T07:09:22.572Z,12.30
2018-05-15T07:11:51.964Z,12.57
2018-05-15T07:14:21.363Z,12.70
2018-05-15T07:16:50.764Z,12.03
2018-05-15T07:19:20.172Z,11.43
2018-05-15T07:21:50.418Z,11.70
2018-05-15T07:24:20.750Z,11.50
2018-05-15T07:26:50.138Z,12.17
2018-05-15T07:29:19.549Z,11.40
2018-05-15T07:31:48.935Z,11.73
2018-05-15T07:34:18.334Z,11.20
2018-05-15T07:36:48.308Z,10.80
2018-05-15T07:39:18.348Z,11.70
2018-05-15T07:41:47.738Z,13.23
2018-05-15T07:44:17.152Z,11.17
2018-05-15T07:46:46.547Z,11.00
2018-05-15T07:49:15.964Z,10.90
2018-05-15T07:51:45.367Z,11.00
2018-05-15T07:54:15.548Z,11.20
2018-05-15T07:56:44.936Z,10.63
2018-05-15T07:59:14.352Z,11.30
2018-05-15T08:01:44.384Z,9.97
2018-05-15T08:04:13.798Z,9.70
2018-05-15T08:06:43.169Z,9.53
2018-05-15T08:09:13.117Z,8.60
2018-05-15T08:11:42.514Z,9.30
2018-05-15T08:14:12.479Z,9.00
2018-05-15T08:16:42.589Z,9.03
2018-05-15T08:19:12.008Z,8.60
2018-05-15T08:21:41.417Z,8.73
2018-05-15T08:24:11.492Z,8.47
2018-05-15T08:26:42.078Z,8.57
2018-05-15T08:29:11.484Z,9.00
2018-05-15T08:31:41.396Z,8.63
2018-05-15T08:34:11.485Z,8.57
2018-05-15T08:36:42.421Z,8.43
2018-05-15T08:39:11.844Z,8.17
2018-05-15T08:41:42.031Z,8.23
2018-05-15T08:44:12.315Z,9.20
2018-05-15T08:46:41.691Z,7.53
2018-05-15T08:49:11.402Z,7.57
2018-05-15T08:51:43.696Z,7.13
2018-05-15T08:54:13.101Z,6.57
2018-05-15T08:56:42.477Z,6.10
2018-05-15T08:59:12.406Z,6.50
2018-05-15T09:01:41.790Z,5.70
2018-05-15T09:04:12.465Z,5.90
2018-05-15T09:06:41.863Z,5.90
2018-05-15T09:09:11.279Z,5.90
2018-05-15T09:11:40.659Z,6.10
2018-05-15T09:14:10.073Z,6.77
2018-05-15T09:16:40.372Z,6.23
2018-05-15T09:19:09.792Z,6.07
2018-05-15T09:21:39.173Z,6.57
2018-05-15T09:24:08.597Z,6.80
2018-05-15T09:26:37.981Z,6.60
2018-05-15T09:29:07.924Z,6.70
2018-05-15T09:31:37.319Z,6.80
2018-05-15T09:34:06.726Z,7.00
2018-05-15T09:36:36.131Z,6.83
2018-05-15T09:39:05.532Z,7.00
2018-05-15T09:41:34.941Z,7.20
2018-05-15T09:44:04.420Z,6.70
2018-05-15T09:46:36.483Z,7.80
2018-05-15T09:49:05.892Z,7.67
2018-05-15T09:51:36.671Z,7.60
2018-05-15T09:54:06.066Z,8.10
2018-05-15T09:56:35.457Z,8.70
2018-05-15T09:59:04.893Z,8.10
2018-05-15T10:01:37.148Z,8.33
2018-05-15T10:04:07.206Z,8.77
2018-05-15T10:06:37.569Z,8.43
2018-05-15T10:09:10.252Z,8.87
2018-05-15T10:11:39.671Z,9.17
2018-05-15T10:14:09.132Z,9.70
2018-05-15T10:16:38.489Z,8.90
2018-05-15T10:19:07.900Z,8.77
2018-05-15T10:21:37.917Z,8.67
2018-05-15T10:24:07.378Z,8.37
2018-05-15T10:26:36.768Z,8.57
2018-05-15T10:29:06.161Z,9.00
2018-05-15T10:31:35.573Z,7.50
2018-05-15T10:34:04.991Z,8.03
2018-05-15T10:36:34.401Z,8.17
2018-05-15T10:39:03.872Z,8.70
2018-05-15T10:41:33.283Z,8.63
2018-05-15T10:44:02.743Z,9.07
2018-05-15T10:46:32.135Z,8.67
2018-05-15T10:49:01.536Z,9.23
2018-05-15T10:51:31.720Z,8.00
2018-05-15T10:54:04.868Z,7.80
2018-05-15T10:56:34.913Z,9.30
2018-05-15T10:59:04.307Z,9.30
2018-05-15T11:01:33.718Z,8.70
2018-05-15T11:04:03.111Z,9.43
2018-05-15T11:06:34.070Z,9.30
2018-05-15T11:09:03.496Z,9.30
2018-05-15T11:11:32.903Z,9.20
2018-05-15T11:14:05.541Z,9.33
2018-05-15T11:16:34.947Z,8.90
2018-05-15T11:19:11.907Z,8.37
2018-05-15T11:21:47.833Z,8.73
2018-05-15T11:24:23.759Z,9.43
2018-05-15T11:26:53.937Z,9.07
2018-05-15T11:29:23.315Z,8.63
2018-05-15T11:31:52.717Z,7.53
2018-05-15T11:34:22.111Z,9.73
2018-05-15T11:36:51.529Z,7.73
2018-05-15T11:39:21.425Z,8.40
2018-05-15T11:41:50.842Z,8.10
2018-05-15T11:44:20.246Z,8.40
2018-05-15T11:46:49.651Z,8.63
2018-05-15T11:49:19.721Z,8.00
2018-05-15T11:51:49.893Z,7.10
2018-05-15T11:54:18.642Z,7.47
2018-05-15T11:56:49.787Z,6.67
2018-05-15T11:59:20.995Z,6.77
2018-05-15T12:01:50.419Z,7.57
2018-05-15T12:04:19.815Z,6.90
2018-05-15T12:06:52.092Z,6.30
2018-05-15T12:09:23.259Z,6.57
2018-05-15T12:11:52.701Z,6.37
2018-05-15T12:14:22.703Z,6.40
2018-05-15T12:16:53.094Z,7.00
2018-05-15T12:19:22.532Z,7.10
2018-05-15T12:21:51.918Z,6.70
2018-05-15T12:24:21.290Z,6.73
2018-05-15T12:26:53.199Z,6.43
2018-05-15T12:29:22.576Z,5.97
2018-05-15T12:31:51.992Z,6.17
2018-05-15T12:34:22.156Z,6.30
2018-05-15T12:36:52.508Z,7.27
2018-05-15T12:39:21.944Z,6.30
2018-05-15T12:41:51.504Z,7.03
2018-05-15T12:44:20.780Z,6.53
2018-05-15T12:46:50.214Z,6.83
2018-05-15T12:49:19.573Z,6.50
2018-05-15T12:51:48.998Z,6.67
2018-05-15T12:54:18.427Z,6.40
2018-05-15T12:56:47.831Z,7.13
2018-05-15T12:59:17.197Z,6.87
2018-05-15T13:01:48.191Z,6.80
2018-05-15T13:04:17.541Z,7.17
2018-05-15T13:06:46.939Z,7.27
2018-05-15T13:09:16.352Z,6.40
2018-05-15T13:11:45.760Z,7.73
2018-05-15T13:14:15.143Z,6.77
2018-05-15T13:16:45.507Z,6.57
2018-05-15T13:19:14.887Z,7.90
2018-05-15T13:21:46.924Z,7.13
2018-05-15T13:24:17.213Z,7.27
2018-05-15T13:26:46.619Z,6.77
2018-05-15T13:29:16.776Z,6.33
2018-05-15T13:31:46.169Z,7.60
2018-05-15T13:34:15.559Z,6.27
2018-05-15T13:36:45.869Z,6.40
2018-05-15T13:39:15.261Z,5.40
2018-05-15T13:41:45.467Z,6.20
2018-05-15T13:44:15.619Z,6.73
2018-05-15T13:46:45.520Z,5.43
2018-05-15T13:49:15.811Z,5.60
2018-05-15T13:51:45.557Z,6.70
2018-05-15T13:54:15.608Z,8.23
2018-05-15T13:56:47.987Z,5.93
2018-05-15T13:59:17.389Z,6.50
2018-05-15T14:01:47.398Z,6.77
2018-05-15T14:04:16.831Z,6.53
2018-05-15T14:06:47.915Z,6.43
2018-05-15T14:09:17.285Z,6.30
2018-05-15T14:11:46.707Z,6.90
2018-05-15T14:14:16.106Z,5.93
2018-05-15T14:16:45.515Z,6.47
2018-05-15T14:19:15.759Z,7.33
2018-05-15T14:21:45.138Z,6.73
2018-05-15T14:24:15.394Z,6.43
2018-05-15T14:26:44.808Z,6.40
2018-05-15T14:31:56.677Z,6.30
2018-05-15T14:34:26.944Z,6.80
2018-05-15T14:36:56.819Z,6.90
2018-05-15T14:39:27.804Z,7.50
2018-05-15T14:42:03.174Z,6.90
2018-05-15T14:44:32.552Z,6.60
2018-05-15T14:47:01.945Z,6.83
2018-05-15T14:49:31.318Z,5.90
2018-05-15T14:52:04.388Z,5.83
2018-05-15T14:54:33.767Z,6.60
2018-05-15T14:57:03.175Z,6.43
2018-05-15T14:59:33.314Z,6.27
2018-05-15T15:02:03.454Z,5.90
2018-05-15T15:04:32.847Z,6.30
2018-05-15T15:07:02.243Z,6.27
2018-05-15T15:09:33.122Z,6.37
2018-05-15T15:12:02.518Z,6.73
2018-05-15T15:14:32.703Z,6.10
2018-05-15T15:17:02.109Z,5.37
2018-05-15T15:19:31.486Z,5.30
2018-05-15T15:22:01.666Z,6.87
2018-05-15T15:24:31.684Z,6.47
2018-05-15T15:27:03.128Z,6.20
2018-05-15T15:29:32.510Z,5.93
2018-05-15T15:32:01.926Z,6.37
2018-05-15T15:34:31.327Z,6.00
2018-05-15T15:37:00.752Z,6.10
2018-05-15T15:39:30.616Z,6.20
2018-05-15T15:42:00.917Z,6.50
2018-05-15T15:44:31.179Z,6.33
2018-05-15T15:47:00.579Z,6.37
2018-05-15T15:49:29.980Z,6.70
2018-05-15T15:52:00.031Z,6.50
2018-05-15T15:54:29.416Z,6.60
2018-05-15T15:57:00.194Z,6.93
2018-05-15T15:59:29.586Z,7.00
2018-05-15T16:01:58.963Z,6.03
2018-05-15T16:04:28.988Z,7.30
2018-05-15T16:06:58.364Z,7.00
2018-05-15T16:09:27.771Z,6.40
2018-05-15T16:11:57.150Z,6.80
2018-05-15T16:14:26.537Z,6.30
2018-05-15T16:16:55.916Z,6.60
2018-05-15T16:19:26.128Z,6.30
2018-05-15T16:21:55.505Z,6.53
2018-05-15T16:24:25.545Z,6.20
2018-05-15T16:26:54.952Z,6.17
2018-05-15T16:29:24.337Z,7.97
2018-05-15T16:31:53.711Z,6.37
2018-05-15T16:34:23.094Z,6.20
2018-05-15T16:36:52.466Z,5.97
2018-05-15T16:39:21.861Z,6.20
2018-05-15T16:41:51.297Z,6.67
2018-05-15T16:44:21.318Z,6.23
2018-05-15T16:46:51.409Z,6.30
2018-05-15T16:49:21.685Z,6.60
2018-05-15T16:51:51.067Z,6.10
2018-05-15T16:54:20.454Z,6.37
2018-05-15T16:56:49.836Z,6.43
2018-05-15T16:59:19.219Z,6.13
2018-05-15T17:01:48.634Z,6.80
2018-05-15T17:04:18.049Z,6.67
2018-05-15T17:06:47.424Z,6.50
2018-05-15T17:09:16.817Z,5.80
2018-05-15T17:11:46.197Z,5.70
2018-05-15T17:14:15.584Z,5.00
2018-05-15T17:16:45.148Z,5.20
2018-05-15T17:19:14.610Z,4.80
2018-05-15T17:21:43.979Z,5.13
2018-05-15T17:24:13.366Z,4.67
2018-05-15T17:26:42.733Z,4.70
2018-05-15T17:29:12.113Z,4.57
2018-05-15T17:31:41.485Z,5.30
2018-05-15T17:34:10.881Z,5.03
2018-05-15T17:36:40.258Z,4.97
2018-05-15T17:39:09.635Z,5.60
2018-05-15T17:41:39.007Z,5.63
2018-05-15T17:44:09.978Z,6.27
2018-05-15T17:46:39.346Z,5.90
2018-05-15T17:49:08.749Z,5.73
2018-05-15T17:51:38.116Z,5.77
2018-05-15T17:54:07.543Z,5.10
2018-05-15T17:56:36.936Z,5.40
2018-05-15T17:59:08.198Z,5.53
2018-05-15T18:01:38.518Z,5.07
2018-05-15T18:04:07.685Z,7.63
2018-05-15T18:06:39.106Z,5.67
2018-05-15T18:09:07.153Z,5.10
2018-05-15T18:11:36.031Z,5.30
2018-05-15T18:14:07.010Z,5.20
2018-05-15T18:16:35.051Z,4.67
2018-05-15T18:19:04.534Z,5.27
2018-05-15T18:21:33.889Z,4.80
2018-05-15T18:24:03.264Z,5.40
2018-05-15T18:26:32.650Z,5.27
2018-05-15T18:29:01.358Z,5.20
2018-05-15T18:31:29.471Z,5.67
2018-05-15T18:33:57.601Z,6.27
2018-05-15T18:36:25.719Z,6.50
2018-05-15T18:38:54.275Z,6.40
2018-05-15T18:41:22.739Z,6.03
2018-05-15T18:43:52.303Z,6.33
2018-05-15T18:46:21.670Z,5.43
2018-05-15T18:48:51.828Z,6.00
2018-05-15T18:51:21.203Z,5.60
2018-05-15T18:53:50.583Z,5.50
2018-05-15T18:56:19.950Z,5.77
2018-05-15T18:58:49.343Z,6.70
2018-05-15T19:01:18.708Z,5.63
2018-05-15T19:03:48.093Z,5.80
2018-05-15T19:06:17.457Z,5.53
2018-05-15T19:08:46.970Z,6.30
2018-05-15T19:11:18.965Z,5.93
2018-05-15T19:13:48.438Z,6.30
2018-05-15T19:16:16.480Z,6.17
2018-05-15T19:18:44.881Z,5.67
2018-05-15T19:21:14.500Z,5.90
2018-05-15T19:23:43.814Z,6.30
2018-05-15T19:26:12.704Z,6.33
2018-05-15T19:28:41.185Z,6.10
2018-05-15T19:31:15.852Z,5.80
2018-05-15T19:33:49.619Z,7.03
2018-05-15T19:36:18.513Z,6.90
2018-05-15T19:38:47.912Z,6.27
2018-05-15T19:41:19.593Z,6.00
2018-05-15T19:43:47.736Z,5.90
2018-05-15T19:46:16.611Z,6.10
2018-05-15T19:48:44.746Z,5.83
2018-05-15T19:51:12.866Z,6.90
2018-05-15T19:53:42.132Z,6.60
2018-05-15T19:56:10.265Z,6.20
2018-05-15T19:58:38.405Z,6.00
2018-05-15T20:01:06.514Z,6.10
2018-05-15T20:03:34.651Z,5.90
2018-05-15T20:06:02.757Z,6.87
2018-05-15T20:08:31.298Z,5.93
2018-05-15T20:11:00.151Z,6.73
2018-05-15T20:13:28.277Z,6.43
2018-05-15T20:15:56.420Z,6.50
2018-05-15T20:18:24.617Z,5.80
2018-05-15T20:20:53.133Z,5.83
2018-05-15T20:23:22.401Z,6.03
2018-05-15T20:25:51.682Z,6.03
2018-05-15T20:28:19.914Z,6.43
2018-05-15T20:30:48.043Z,6.67
2018-05-15T20:33:19.898Z,6.63
2018-05-15T20:35:48.127Z,6.27
2018-05-15T20:38:16.260Z,6.07
2018-05-15T20:40:44.385Z,7.00
2018-05-15T20:43:13.640Z,7.10
2018-05-15T20:45:42.543Z,6.60
2018-05-15T20:48:11.427Z,6.53
2018-05-15T20:50:40.414Z,6.60
2018-05-15T20:53:08.535Z,7.40
2018-05-15T20:55:36.666Z,7.00
2018-05-15T20:58:05.589Z,7.77
2018-05-15T21:00:33.733Z,8.30
2018-05-15T21:03:02.619Z,7.23
2018-05-15T21:05:31.624Z,7.70
2018-05-15T21:08:00.850Z,8.60
2018-05-15T21:10:29.386Z,8.87
2018-05-15T21:12:57.490Z,8.10
2018-05-15T21:15:25.642Z,9.40
2018-05-15T21:17:54.534Z,8.53
2018-05-15T21:20:23.437Z,8.17
2018-05-15T21:22:52.303Z,8.10
2018-05-15T21:25:22.845Z,8.63
2018-05-15T21:27:52.212Z,8.93
2018-05-15T21:30:21.610Z,8.97
2018-05-15T21:32:50.982Z,8.43
2018-05-15T21:35:20.887Z,8.73
2018-05-15T21:37:50.255Z,8.20
2018-05-15T21:40:19.866Z,8.63
2018-05-15T21:42:49.257Z,9.50
2018-05-15T21:45:18.648Z,9.37
2018-05-15T21:47:48.034Z,9.57
2018-05-15T21:50:17.424Z,8.87
2018-05-15T21:52:47.912Z,8.90
2018-05-15T21:55:17.306Z,8.60
2018-05-15T21:57:46.672Z,8.83
2018-05-15T22:00:16.070Z,9.63
2018-05-15T22:02:45.442Z,9.73
2018-05-15T22:05:14.845Z,10.53
2018-05-15T22:07:44.231Z,9.93
2018-05-15T22:10:13.624Z,8.93
2018-05-15T22:12:48.843Z,9.80
2018-05-15T22:15:24.086Z,8.40
2018-05-15T22:17:59.335Z,9.60
2018-05-15T22:20:34.557Z,10.43
2018-05-15T22:23:03.681Z,9.40
2018-05-15T22:25:33.081Z,10.30
2018-05-15T22:28:02.455Z,9.90
2018-05-15T22:30:32.490Z,9.00
2018-05-15T22:33:01.866Z,10.30
2018-05-15T22:35:31.259Z,9.93
2018-05-15T22:38:00.635Z,9.60
2018-05-15T22:40:30.032Z,9.80
2018-05-15T22:42:59.419Z,9.27
2018-05-15T22:45:29.645Z,9.93
2018-05-15T22:47:59.014Z,9.60
2018-05-15T22:50:28.406Z,9.00
2018-05-15T22:52:57.784Z,9.50
2018-05-15T22:55:27.187Z,8.27
2018-05-15T22:57:56.552Z,9.70
2018-05-15T23:00:26.567Z,9.00
2018-05-15T23:02:55.929Z,9.30
2018-05-15T23:05:25.339Z,9.20
2018-05-15T23:07:54.710Z,8.93
2018-05-15T23:10:24.106Z,9.60
2018-05-15T23:12:53.472Z,10.13
2018-05-15T23:15:22.866Z,8.93
2018-05-15T23:17:52.236Z,9.00
2018-05-15T23:20:21.638Z,8.30
2018-05-15T23:22:51.036Z,10.10
2018-05-15T23:25:20.407Z,9.10
2018-05-15T23:27:49.811Z,9.60
2018-05-15T23:30:20.047Z,9.27
2018-05-15T23:32:50.078Z,9.50
2018-05-15T23:35:19.449Z,9.10
2018-05-15T23:37:48.863Z,9.90
2018-05-15T23:40:18.260Z,9.70
2018-05-15T23:42:47.648Z,10.03
2018-05-15T23:45:17.035Z,10.87
2018-05-15T23:47:46.447Z,11.27
2018-05-15T23:50:16.334Z,11.00
2018-05-15T23:52:46.382Z,11.33
2018-05-15T23:55:15.771Z,12.03
2018-05-15T23:57:45.167Z,11.77
